Time;durP1;ratioP1;P1;durP2;ratioP2;P2;SDS_P1;SDS_P2;PMS_P1;PMS_P2;Temp;Humidity;BMP_temperature;BMP_pressure;BME280_temperature;BME280_humidity;BME280_pressure;Samples;Min_cycle;Max_cycle;Signal;HPM_P1;HPM_P2
2022/02/12 00:02:02;;;;;;;3.10;2.43;;;5.70;41.40;;;;;;6298591;28;20588;-66
2022/02/12 00:05:05;;;;;;;3.30;1.80;;;5.60;41.70;;;;;;6248808;28;20548;-66
2022/02/12 00:08:09;;;;;;;2.73;2.20;;;5.60;42.00;;;;;;6249769;28;20475;-62
2022/02/12 00:11:12;;;;;;;2.97;2.00;;;5.50;42.40;;;;;;6249456;28;20495;-63
2022/02/12 00:14:16;;;;;;;3.87;2.10;;;5.50;42.90;;;;;;6328553;22;20475;-62
2022/02/12 00:17:19;;;;;;;2.50;1.90;;;5.30;43.10;;;;;;6323966;28;20483;-63
2022/02/12 00:20:22;;;;;;;3.40;1.90;;;5.20;44.60;;;;;;6323965;28;20831;-64
2022/02/12 00:23:25;;;;;;;3.57;2.37;;;5.10;44.00;;;;;;6305112;28;20480;-63
2022/02/12 00:26:28;;;;;;;3.13;1.87;;;5.10;44.90;;;;;;6299043;28;20481;-64
2022/02/12 00:29:33;;;;;;;8.30;2.33;;;5.10;44.20;;;;;;6298112;28;20960;-62
2022/02/12 00:32:36;;;;;;;4.80;2.70;;;5.10;44.80;;;;;;6298071;28;20481;-63
2022/02/12 00:35:39;;;;;;;2.77;2.53;;;5.10;44.30;;;;;;6298205;28;20517;-64
2022/02/12 00:38:43;;;;;;;4.47;2.83;;;5.00;44.90;;;;;;6297904;28;20473;-63
2022/02/12 00:41:46;;;;;;;3.50;2.53;;;5.00;44.70;;;;;;6293383;28;20490;-63
2022/02/12 00:44:51;;;;;;;3.33;2.90;;;5.00;44.70;;;;;;6302376;28;20489;-64
2022/02/12 00:47:54;;;;;;;5.53;2.73;;;4.90;44.30;;;;;;6302508;28;20469;-64
2022/02/12 00:50:59;;;;;;;4.67;2.50;;;4.90;44.70;;;;;;6304216;28;20468;-64
2022/02/12 00:54:04;;;;;;;2.33;2.10;;;4.90;44.90;;;;;;6299474;28;20485;-64
2022/02/12 00:57:09;;;;;;;7.03;3.60;;;4.80;44.70;;;;;;6298701;28;20473;-63
2022/02/12 01:00:15;;;;;;;6.00;3.47;;;4.80;44.50;;;;;;6301257;28;20965;-64
2022/02/12 01:03:18;;;;;;;5.17;3.17;;;4.80;44.80;;;;;;6303719;28;20466;-63
2022/02/12 01:06:22;;;;;;;5.83;3.33;;;4.70;45.10;;;;;;6291472;28;20465;-63
2022/02/12 01:09:25;;;;;;;6.03;4.03;;;4.70;45.30;;;;;;6285866;28;20461;-64
2022/02/12 01:12:28;;;;;;;32.40;21.13;;;4.60;45.50;;;;;;6301859;28;20492;-64
2022/02/12 01:15:33;;;;;;;10.43;8.80;;;4.70;45.60;;;;;;6290010;28;20453;-64
2022/02/12 01:18:36;;;;;;;7.47;4.47;;;4.70;45.60;;;;;;6278356;28;20914;-62
2022/02/12 01:21:39;;;;;;;4.80;3.67;;;4.60;45.60;;;;;;6290192;28;20465;-63
2022/02/12 01:24:42;;;;;;;5.90;3.70;;;4.60;45.90;;;;;;6288220;28;20470;-63
2022/02/12 01:27:46;;;;;;;3.97;3.00;;;4.50;46.00;;;;;;6280421;28;20523;-64
2022/02/12 01:30:50;;;;;;;4.87;3.50;;;4.50;46.80;;;;;;6296268;28;20471;-63
2022/02/12 01:33:55;;;;;;;5.53;3.40;;;4.50;46.30;;;;;;6285914;28;20474;-63
2022/02/12 01:36:58;;;;;;;3.13;2.37;;;4.50;46.50;;;;;;6280447;28;20465;-63
2022/02/12 01:40:01;;;;;;;4.87;2.90;;;4.50;46.50;;;;;;6299501;28;20472;-63
2022/02/12 01:43:07;;;;;;;6.43;3.40;;;4.40;46.60;;;;;;6295831;28;20481;-63
2022/02/12 01:46:11;;;;;;;5.17;3.60;;;4.40;46.80;;;;;;6280254;28;20470;-63
2022/02/12 01:49:14;;;;;;;5.53;3.70;;;4.40;46.80;;;;;;6278562;28;20463;-63
2022/02/12 01:52:21;;;;;;;3.97;2.90;;;4.30;47.10;;;;;;6292176;28;20474;-63
2022/02/12 01:55:24;;;;;;;4.10;3.10;;;4.30;47.30;;;;;;6301057;28;20470;-63
2022/02/12 01:58:27;;;;;;;3.80;2.97;;;4.20;47.40;;;;;;6301459;28;20527;-63
2022/02/12 02:01:31;;;;;;;3.87;3.57;;;4.10;47.80;;;;;;6300585;28;20530;-64
2022/02/12 02:04:35;;;;;;;4.10;3.20;;;4.10;48.00;;;;;;6279521;28;20482;-63
2022/02/12 02:07:39;;;;;;;6.93;2.80;;;4.10;47.90;;;;;;6276101;28;20509;-63
2022/02/12 02:10:42;;;;;;;4.10;2.40;;;4.10;48.00;;;;;;6275765;28;20474;-63
2022/02/12 02:13:46;;;;;;;3.00;2.60;;;4.00;48.00;;;;;;6272225;28;20479;-64
2022/02/12 02:16:51;;;;;;;5.53;2.63;;;4.00;48.00;;;;;;6251052;28;20479;-64
2022/02/12 02:19:54;;;;;;;3.70;2.77;;;4.00;48.40;;;;;;6263417;28;20481;-64
2022/02/12 02:22:59;;;;;;;2.97;2.20;;;3.90;48.70;;;;;;6275698;28;20471;-63
2022/02/12 02:26:02;;;;;;;3.07;2.13;;;3.90;48.60;;;;;;6275294;28;20471;-63
2022/02/12 02:29:05;;;;;;;2.33;2.13;;;3.90;48.60;;;;;;6275329;28;20950;-63
2022/02/12 02:32:09;;;;;;;4.30;2.83;;;3.80;48.70;;;;;;6275509;28;20481;-63
2022/02/12 02:35:15;;;;;;;2.17;1.97;;;3.90;48.90;;;;;;6274988;28;20479;-64
2022/02/12 02:38:20;;;;;;;2.80;2.20;;;3.90;48.90;;;;;;6275435;28;20475;-64
2022/02/12 02:41:23;;;;;;;4.30;2.30;;;3.80;49.00;;;;;;6274938;28;20479;-64
2022/02/12 02:44:26;;;;;;;1.80;1.60;;;3.80;49.10;;;;;;6281318;28;20844;-64
2022/02/12 02:47:40;;;;;;;3.87;2.23;;;3.70;49.40;;;;;;6281813;28;20802;-64
2022/02/12 02:57:27;;;;;;;2.10;1.80;;;3.60;50.30;;;;;;6279638;28;20447;-63
2022/02/12 03:00:30;;;;;;;2.40;2.17;;;3.50;50.40;;;;;;6276132;28;20906;-63
2022/02/12 03:03:33;;;;;;;1.80;1.70;;;3.50;50.40;;;;;;6261700;28;20565;-63
2022/02/12 03:06:36;;;;;;;3.23;1.97;;;3.50;50.40;;;;;;6249545;28;20462;-63
2022/02/12 03:09:40;;;;;;;2.90;2.27;;;3.40;50.50;;;;;;6249690;28;20440;-63
2022/02/12 03:12:43;;;;;;;2.07;1.97;;;3.30;50.80;;;;;;6249337;28;20459;-64
2022/02/12 03:15:46;;;;;;;2.10;1.90;;;3.30;51.20;;;;;;6269136;28;20973;-64
2022/02/12 03:18:50;;;;;;;2.73;2.13;;;3.30;51.20;;;;;;6275353;28;20834;-63
2022/02/12 03:21:53;;;;;;;1.70;1.60;;;3.30;51.10;;;;;;6274543;28;20477;-63
2022/02/12 03:24:58;;;;;;;1.83;1.73;;;3.30;51.00;;;;;;6273965;28;20489;-64
2022/02/12 03:28:03;;;;;;;4.00;2.53;;;3.30;51.30;;;;;;6274178;28;20479;-64
2022/02/12 03:31:06;;;;;;;2.50;1.97;;;3.30;51.60;;;;;;6274711;28;20466;-65
2022/02/12 03:34:10;;;;;;;1.90;1.60;;;3.20;51.10;;;;;;6274295;28;20479;-64
2022/02/12 03:37:13;;;;;;;3.53;3.20;;;3.20;51.20;;;;;;6274255;28;20496;-65
2022/02/12 03:40:18;;;;;;;4.60;2.10;;;3.10;51.40;;;;;;6274151;28;20475;-64
2022/02/12 03:43:22;;;;;;;3.07;2.77;;;3.10;52.00;;;;;;6273959;28;20478;-64
2022/02/12 03:46:25;;;;;;;3.53;2.57;;;3.10;52.10;;;;;;6274125;28;20541;-64
2022/02/12 03:49:28;;;;;;;3.17;2.40;;;3.00;52.40;;;;;;6274440;28;20471;-64
2022/02/12 03:52:31;;;;;;;3.40;3.10;;;3.00;52.40;;;;;;6264564;28;20544;-65
2022/02/12 03:55:39;;;;;;;3.20;2.10;;;3.10;52.50;;;;;;6274562;28;20489;-65
2022/02/12 03:58:42;;;;;;;1.73;1.63;;;3.00;52.50;;;;;;6274488;28;20474;-64
2022/02/12 04:01:45;;;;;;;3.27;2.27;;;3.00;52.60;;;;;;6274538;28;20809;-64
2022/02/12 04:04:48;;;;;;;2.80;2.33;;;2.90;52.70;;;;;;6251003;28;20472;-64
2022/02/12 04:07:51;;;;;;;2.10;1.77;;;2.90;52.80;;;;;;6249203;28;20529;-64
2022/02/12 04:10:58;;;;;;;3.07;1.83;;;2.90;53.00;;;;;;6249359;28;20467;-64
2022/02/12 04:14:02;;;;;;;5.60;2.67;;;2.90;53.40;;;;;;6254169;28;20481;-64
2022/02/12 04:17:06;;;;;;;2.47;2.27;;;2.80;53.50;;;;;;6274308;28;20553;-64
2022/02/12 04:20:12;;;;;;;4.00;2.30;;;2.80;53.50;;;;;;6278250;28;20478;-63
2022/02/12 04:23:15;;;;;;;2.17;2.07;;;2.80;53.40;;;;;;6278277;28;20482;-63
2022/02/12 04:26:20;;;;;;;2.27;2.00;;;2.80;53.60;;;;;;6278279;28;20489;-63
2022/02/12 04:29:23;;;;;;;2.03;1.70;;;2.80;53.70;;;;;;6278351;28;20470;-63
2022/02/12 04:32:26;;;;;;;2.73;2.43;;;2.80;53.70;;;;;;6278192;28;20474;-63
2022/02/12 04:35:29;;;;;;;2.20;2.00;;;2.80;53.60;;;;;;6277953;28;20799;-63
2022/02/12 04:38:32;;;;;;;2.27;2.07;;;2.80;53.80;;;;;;6278162;28;20466;-63
2022/02/12 04:41:37;;;;;;;3.07;2.00;;;2.80;53.90;;;;;;6277800;28;20787;-63
2022/02/12 04:44:40;;;;;;;1.83;1.40;;;2.80;53.80;;;;;;6278474;28;20848;-64
2022/02/12 04:47:43;;;;;;;1.70;1.60;;;2.70;54.20;;;;;;6278373;28;20481;-64
2022/02/12 04:50:46;;;;;;;1.90;1.80;;;2.70;54.60;;;;;;6277772;28;20474;-63
2022/02/12 04:53:51;;;;;;;1.70;1.60;;;2.70;54.80;;;;;;6277661;28;20482;-64
2022/02/12 04:56:56;;;;;;;2.57;2.30;;;2.70;54.70;;;;;;6272889;28;20466;-64
2022/02/12 04:59:59;;;;;;;2.47;1.77;;;2.70;54.60;;;;;;6277591;28;20532;-63
2022/02/12 05:03:02;;;;;;;3.13;2.27;;;2.60;54.50;;;;;;6269073;28;20475;-63
2022/02/12 05:06:06;;;;;;;2.97;1.70;;;2.60;54.70;;;;;;6252557;28;20471;-63
2022/02/12 05:09:09;;;;;;;2.73;2.10;;;2.60;54.90;;;;;;6252479;28;20989;-62
2022/02/12 05:12:14;;;;;;;5.93;1.90;;;2.50;54.70;;;;;;6252132;28;20490;-63
2022/02/12 05:15:17;;;;;;;2.73;2.33;;;2.50;55.30;;;;;;6268248;28;20470;-63
2022/02/12 05:18:20;;;;;;;1.93;1.73;;;2.40;55.70;;;;;;6277038;28;20808;-64
2022/02/12 05:21:23;;;;;;;2.50;2.13;;;2.40;56.00;;;;;;6277385;28;20459;-64
2022/02/12 05:24:26;;;;;;;3.20;2.40;;;2.40;56.30;;;;;;6277219;28;20509;-64
2022/02/12 05:27:32;;;;;;;2.10;1.90;;;2.40;56.30;;;;;;6277393;28;20900;-64
2022/02/12 05:30:35;;;;;;;2.43;1.90;;;2.40;56.20;;;;;;6278057;28;20784;-65
2022/02/12 05:33:38;;;;;;;2.73;2.20;;;2.40;56.40;;;;;;6277367;28;20485;-64
2022/02/12 05:36:42;;;;;;;4.07;2.80;;;2.40;56.60;;;;;;6276483;28;20740;-63
2022/02/12 05:39:45;;;;;;;2.17;2.07;;;2.40;56.60;;;;;;6276467;28;20938;-64
2022/02/12 05:42:49;;;;;;;4.07;2.50;;;2.40;56.80;;;;;;6277378;28;20470;-63
2022/02/12 05:45:52;;;;;;;2.93;2.63;;;2.30;57.00;;;;;;6291059;28;20470;-64
2022/02/12 05:48:55;;;;;;;2.43;2.23;;;2.30;57.50;;;;;;6277507;28;20477;-64
2022/02/12 05:51:58;;;;;;;3.43;2.50;;;2.20;57.80;;;;;;6277967;28;20547;-64
2022/02/12 05:55:01;;;;;;;4.13;2.50;;;2.10;57.70;;;;;;6277382;28;20958;-65
2022/02/12 05:58:06;;;;;;;2.80;2.30;;;2.10;57.80;;;;;;6279445;28;20483;-63
2022/02/12 06:01:09;;;;;;;1.90;1.80;;;2.10;58.00;;;;;;6281177;28;20471;-63
2022/02/12 06:04:12;;;;;;;5.60;2.73;;;2.10;58.20;;;;;;6258655;28;20510;-63
2022/02/12 06:07:15;;;;;;;2.10;1.93;;;2.10;58.40;;;;;;6251749;28;20693;-64
2022/02/12 06:10:18;;;;;;;2.67;2.47;;;2.10;58.60;;;;;;6251321;28;20474;-63
2022/02/12 06:13:23;;;;;;;2.20;1.90;;;2.10;59.00;;;;;;6252365;28;20471;-63
2022/02/12 06:16:26;;;;;;;3.67;3.30;;;2.00;59.20;;;;;;6251088;28;20475;-64
2022/02/12 06:19:30;;;;;;;3.07;2.77;;;2.00;59.60;;;;;;6251819;28;20583;-65
2022/02/12 06:22:38;;;;;;;2.70;2.50;;;2.00;59.50;;;;;;6252290;28;20618;-64
2022/02/12 06:25:41;;;;;;;4.10;2.40;;;2.10;59.80;;;;;;6250824;28;20522;-63
2022/02/12 06:28:50;;;;;;;2.03;1.93;;;2.20;59.90;;;;;;6250972;28;20472;-63
2022/02/12 06:31:53;;;;;;;2.60;2.40;;;2.20;59.70;;;;;;6250374;28;20479;-63
2022/02/12 06:34:59;;;;;;;3.90;2.20;;;2.20;59.70;;;;;;6250825;28;20471;-63
2022/02/12 06:38:02;;;;;;;6.77;2.40;;;2.20;59.60;;;;;;6250473;28;20495;-63
2022/02/12 06:41:05;;;;;;;3.20;2.70;;;2.30;59.50;;;;;;6249792;28;20472;-63
2022/02/12 06:44:10;;;;;;;2.60;2.40;;;2.30;59.30;;;;;;6253777;28;20486;-63
2022/02/12 06:47:13;;;;;;;4.80;3.10;;;2.30;59.50;;;;;;6275321;28;20852;-64
2022/02/12 06:50:17;;;;;;;3.77;2.70;;;2.30;59.70;;;;;;6274647;28;20499;-64
2022/02/12 06:53:20;;;;;;;3.87;3.37;;;2.30;60.00;;;;;;6274872;28;20600;-64
2022/02/12 06:56:23;;;;;;;2.97;2.70;;;2.30;60.00;;;;;;6274668;28;20970;-64
2022/02/12 06:59:27;;;;;;;3.73;3.30;;;2.30;60.40;;;;;;6274812;28;20470;-64
2022/02/12 07:02:31;;;;;;;2.83;2.63;;;2.40;60.70;;;;;;6270392;28;20479;-64
2022/02/12 07:05:35;;;;;;;3.50;3.00;;;2.30;60.70;;;;;;6242832;28;20498;-64
2022/02/12 07:08:38;;;;;;;3.10;2.80;;;2.30;60.80;;;;;;6251622;28;20479;-64
2022/02/12 07:11:44;;;;;;;2.87;2.60;;;2.40;60.80;;;;;;6250353;28;20956;-64
2022/02/12 07:14:49;;;;;;;3.07;2.87;;;2.50;60.80;;;;;;6260829;28;20474;-64
2022/02/12 07:17:53;;;;;;;3.37;3.07;;;2.40;61.00;;;;;;6265388;28;20470;-64
2022/02/12 07:20:56;;;;;;;3.17;2.90;;;2.30;62.00;;;;;;6252584;28;20513;-63
2022/02/12 07:23:59;;;;;;;3.37;3.07;;;2.30;62.60;;;;;;6258788;28;20475;-64
2022/02/12 07:27:02;;;;;;;3.00;2.80;;;2.40;62.70;;;;;;6263641;28;20486;-63
2022/02/12 07:30:10;;;;;;;3.40;2.77;;;2.50;62.60;;;;;;6265938;28;20471;-64
2022/02/12 07:33:13;;;;;;;3.60;3.30;;;2.60;62.30;;;;;;6263593;28;20799;-64
2022/02/12 07:36:16;;;;;;;5.37;3.43;;;2.70;62.00;;;;;;6262310;28;20468;-64
2022/02/12 07:39:19;;;;;;;4.70;3.20;;;2.80;62.00;;;;;;6257627;28;20798;-64
2022/02/12 07:42:22;;;;;;;5.33;3.40;;;3.00;61.90;;;;;;6260808;28;20915;-64
2022/02/12 07:45:28;;;;;;;6.07;3.40;;;3.10;61.60;;;;;;6295381;28;20481;-64
2022/02/12 07:48:31;;;;;;;3.20;2.90;;;3.10;61.20;;;;;;6288422;28;20457;-64
2022/02/12 07:51:34;;;;;;;7.00;4.30;;;3.20;61.20;;;;;;6280476;28;20478;-64
2022/02/12 07:54:38;;;;;;;3.80;2.50;;;3.30;61.10;;;;;;6304732;28;20448;-64
2022/02/12 07:57:41;;;;;;;3.30;3.00;;;3.40;60.80;;;;;;6304346;28;20448;-65
2022/02/12 08:00:45;;;;;;;3.07;2.63;;;3.50;60.70;;;;;;6304565;28;20462;-65
2022/02/12 08:03:48;;;;;;;7.33;2.97;;;3.60;61.00;;;;;;6289285;28;20473;-65
2022/02/12 08:13:35;;;;;;;2.70;2.50;;;4.10;59.20;;;;;;6278510;28;20539;-64
2022/02/12 08:16:40;;;;;;;6.10;2.60;;;4.10;59.20;;;;;;6278650;28;21147;-64
2022/02/12 08:19:44;;;;;;;3.47;2.53;;;4.20;59.10;;;;;;6278422;28;20478;-65
2022/02/12 08:22:47;;;;;;;3.57;2.70;;;4.30;59.10;;;;;;6278338;28;20485;-65
2022/02/12 08:25:50;;;;;;;6.13;2.20;;;4.50;58.90;;;;;;6278325;28;20818;-64
2022/02/12 08:28:54;;;;;;;3.97;3.30;;;4.60;58.70;;;;;;6278126;28;20478;-64
2022/02/12 08:31:59;;;;;;;4.60;2.17;;;4.70;58.20;;;;;;6278321;28;20505;-64
2022/02/12 08:35:02;;;;;;;4.07;3.33;;;4.90;58.10;;;;;;6278173;28;20473;-64
2022/02/12 08:38:06;;;;;;;3.17;2.37;;;5.00;57.90;;;;;;6278091;28;20981;-65
2022/02/12 08:41:09;;;;;;;3.90;2.07;;;5.10;57.60;;;;;;6277899;28;20466;-64
2022/02/12 08:44:12;;;;;;;2.33;2.10;;;5.20;57.30;;;;;;6277924;28;20470;-64
2022/02/12 08:47:17;;;;;;;6.57;2.10;;;5.30;56.70;;;;;;6277710;28;20479;-63
2022/02/12 08:50:20;;;;;;;2.60;1.73;;;5.40;56.50;;;;;;6277770;28;20497;-64
2022/02/12 08:53:23;;;;;;;2.40;2.20;;;5.60;56.10;;;;;;6252921;28;20975;-65
2022/02/12 08:56:26;;;;;;;3.50;2.00;;;5.70;55.70;;;;;;6252994;28;20467;-65
2022/02/12 08:59:30;;;;;;;4.63;2.07;;;5.90;55.40;;;;;;6253075;28;20472;-64
2022/02/12 09:02:44;;;;;;;1.87;1.67;;;6.10;55.10;;;;;;6265768;28;20526;-64
2022/02/12 09:05:47;;;;;;;3.07;1.53;;;6.30;54.20;;;;;;6281453;28;20479;-64
2022/02/12 09:08:51;;;;;;;1.63;1.20;;;6.50;53.60;;;;;;6277550;28;20784;-64
2022/02/12 09:11:54;;;;;;;4.90;1.57;;;6.80;52.90;;;;;;6276829;28;20486;-63
2022/02/12 09:14:57;;;;;;;2.50;1.30;;;7.00;52.00;;;;;;6277089;28;20478;-64
2022/02/12 09:18:02;;;;;;;2.17;1.13;;;7.30;51.40;;;;;;6276949;28;20965;-64
2022/02/12 09:21:05;;;;;;;2.33;1.20;;;8.30;50.40;;;;;;6277858;28;20787;-65
2022/02/12 09:24:09;;;;;;;3.90;1.10;;;11.20;45.90;;;;;;6278150;28;20489;-66
2022/02/12 09:27:13;;;;;;;1.40;1.20;;;15.70;39.70;;;;;;6277693;28;20478;-66
2022/02/12 09:30:17;;;;;;;2.20;1.27;;;20.00;31.10;;;;;;6277428;28;20477;-66
2022/02/12 09:33:21;;;;;;;2.40;1.30;;;23.60;27.00;;;;;;6276512;28;20872;-65
2022/02/12 09:36:25;;;;;;;2.70;2.17;;;26.10;23.50;;;;;;6276692;28;20220;-66
2022/02/12 09:39:29;;;;;;;2.13;1.67;;;26.80;21.70;;;;;;6277046;28;20211;-66
2022/02/12 09:42:32;;;;;;;5.00;2.33;;;23.20;22.20;;;;;;6277492;28;20289;-63
2022/02/12 09:45:43;;;;;;;2.40;2.20;;;20.10;24.50;;;;;;6277055;28;20228;-63
2022/02/12 09:48:48;;;;;;;3.77;2.80;;;18.40;26.20;;;;;;6277135;28;20678;-63
2022/02/12 09:51:53;;;;;;;3.90;3.10;;;15.90;28.70;;;;;;6276774;28;20466;-63
2022/02/12 09:54:57;;;;;;;3.87;2.77;;;16.30;29.90;;;;;;6264084;28;20474;-64
2022/02/12 09:58:00;;;;;;;4.90;3.30;;;18.70;28.10;;;;;;6258218;28;20545;-64
2022/02/12 10:01:04;;;;;;;2.33;2.13;;;22.40;26.00;;;;;;6253849;28;20232;-64
2022/02/12 10:04:17;;;;;;;3.53;2.40;;;25.40;22.70;;;;;;6267539;28;20235;-65
2022/02/12 10:07:25;;;;;;;3.33;3.03;;;27.20;21.20;;;;;;6268858;28;20230;-67
2022/02/12 10:10:30;;;;;;;3.80;3.23;;;29.00;19.80;;;;;;6259791;28;20247;-67
2022/02/12 10:13:33;;;;;;;2.30;1.90;;;31.20;18.50;;;;;;6258676;28;20572;-66
2022/02/12 10:16:53;;;;;;;4.68;2.03;;;32.60;16.90;;;;;;6259170;28;20250;-67
2022/02/12 10:19:57;;;;;;;3.28;1.95;;;33.20;15.60;;;;;;6264107;28;20231;-69
2022/02/12 10:23:09;;;;;;;2.22;1.80;;;33.60;15.70;;;;;;6268163;28;20220;-66
2022/02/12 10:26:13;;;;;;;1.75;1.30;;;34.10;15.00;;;;;;6263090;28;20250;-66
2022/02/12 10:29:19;;;;;;;1.42;1.33;;;33.90;14.50;;;;;;6264962;28;20227;-65
2022/02/12 10:32:23;;;;;;;3.45;1.63;;;34.30;14.60;;;;;;6259197;28;20737;-66
2022/02/12 10:35:29;;;;;;;1.35;1.13;;;34.00;14.10;;;;;;6265293;28;20668;-66
2022/02/12 10:38:33;;;;;;;1.48;1.15;;;34.30;14.20;;;;;;6273489;28;20757;-65
2022/02/12 10:41:36;;;;;;;1.90;1.58;;;35.30;13.70;;;;;;6274925;28;20551;-67
2022/02/12 10:44:40;;;;;;;1.38;1.00;;;36.00;13.70;;;;;;6275100;28;20238;-65
2022/02/12 10:47:44;;;;;;;1.42;1.00;;;34.60;13.50;;;;;;6275217;28;20630;-66
2022/02/12 10:50:58;;;;;;;1.33;1.00;;;33.80;13.80;;;;;;6275410;28;20226;-65
2022/02/12 10:54:04;;;;;;;2.60;1.45;;;33.00;13.90;;;;;;6275038;28;20238;-65
2022/02/12 10:57:08;;;;;;;1.65;1.20;;;32.40;14.40;;;;;;6275077;28;20227;-66
2022/02/12 11:00:13;;;;;;;1.55;1.17;;;33.40;14.00;;;;;;6274675;28;20262;-65
2022/02/12 11:03:18;;;;;;;2.45;1.50;;;34.20;14.30;;;;;;6263956;28;20235;-67
2022/02/12 11:06:23;;;;;;;1.45;1.25;;;34.50;13.50;;;;;;6249837;28;20243;-64
2022/02/12 11:09:31;;;;;;;2.05;1.25;;;36.20;13.40;;;;;;6250305;28;20212;-66
2022/02/12 11:12:37;;;;;;;2.08;1.30;;;36.90;12.80;;;;;;6273573;28;20239;-66
2022/02/12 11:15:40;;;;;;;1.85;1.38;;;38.40;12.40;;;;;;6268219;28;20199;-68
2022/02/12 11:18:45;;;;;;;1.55;1.33;;;37.80;11.80;;;;;;6274851;28;20238;-64
2022/02/12 11:21:50;;;;;;;2.28;1.55;;;37.30;12.20;;;;;;6275543;28;20227;-66
2022/02/12 11:24:54;;;;;;;3.20;1.55;;;37.60;12.40;;;;;;6274803;28;20223;-65
2022/02/12 11:28:05;;;;;;;2.00;1.58;;;34.80;12.70;;;;;;6272662;28;20222;-66
2022/02/12 11:31:27;;;;;;;1.90;1.65;;;32.40;14.30;;;;;;6273015;28;20231;-66
2022/02/12 11:34:32;;;;;;;2.78;1.52;;;32.10;14.30;;;;;;6272918;28;20254;-66
2022/02/12 11:37:38;;;;;;;1.80;1.48;;;33.50;14.00;;;;;;6273092;28;20231;-67
2022/02/12 11:40:41;;;;;;;1.45;1.10;;;36.00;12.70;;;;;;6273124;28;20281;-65
2022/02/12 11:43:46;;;;;;;2.13;1.75;;;37.40;12.30;;;;;;6274258;28;20231;-65
2022/02/12 11:47:05;;;;;;;1.63;1.45;;;38.80;11.80;;;;;;6274237;28;20227;-65
2022/02/12 11:50:16;;;;;;;2.50;2.10;;;38.90;11.50;;;;;;6274349;28;20231;-65
2022/02/12 11:53:43;;;;;;;1.73;1.52;;;39.10;11.30;;;;;;6274186;28;20255;-65
2022/02/12 11:56:53;;;;;;;1.55;1.00;;;37.50;11.30;;;;;;6274203;28;20239;-64
2022/02/12 12:00:39;;;;;;;4.07;1.38;;;37.00;11.70;;;;;;6273828;28;20230;-65
2022/02/12 12:04:04;;;;;;;1.77;1.00;;;37.40;11.60;;;;;;6261607;28;20235;-65
2022/02/12 12:07:14;;;;;;;1.85;1.70;;;37.60;11.20;;;;;;6251889;28;20290;-65
2022/02/12 12:10:18;;;;;;;1.63;1.40;;;32.40;12.80;;;;;;6250412;28;20238;-65
2022/02/12 12:13:41;;;;;;;1.60;1.50;;;28.80;15.10;;;;;;6249316;28;20232;-65
2022/02/12 12:16:55;;;;;;;1.38;1.20;;;30.60;14.60;;;;;;6249677;28;20243;-66
2022/02/12 12:19:59;;;;;;;1.88;1.48;;;33.50;13.30;;;;;;6249342;28;20229;-67
2022/02/12 12:23:03;;;;;;;1.50;1.33;;;35.80;12.40;;;;;;6249345;28;20246;-67
2022/02/12 12:26:06;;;;;;;3.97;1.55;;;37.20;11.60;;;;;;6240254;28;20948;-66
2022/02/12 12:32:35;;;;;;;1.33;1.10;;;39.70;11.10;;;;;;6248949;28;20236;-66
2022/02/12 12:35:39;;;;;;;2.85;1.42;;;40.60;10.30;;;;;;6249208;28;20228;-65
2022/02/12 12:38:45;;;;;;;1.52;1.25;;;40.70;10.60;;;;;;6250275;28;20232;-66
2022/02/12 12:41:54;;;;;;;1.20;1.10;;;39.50;10.00;;;;;;6253163;28;20546;-66
2022/02/12 12:44:59;;;;;;;1.35;1.00;;;39.90;10.20;;;;;;6264276;28;20231;-66
2022/02/12 12:48:04;;;;;;;1.90;1.10;;;39.60;10.30;;;;;;6277976;28;20246;-66
2022/02/12 12:51:16;;;;;;;1.60;1.20;;;37.80;10.80;;;;;;6277919;28;20230;-66
2022/02/12 12:54:30;;;;;;;1.48;1.38;;;36.50;11.40;;;;;;6277653;28;20239;-66
2022/02/12 12:57:39;;;;;;;1.58;1.20;;;36.30;11.60;;;;;;6278017;28;20234;-65
2022/02/12 13:00:42;;;;;;;1.92;1.20;;;36.30;11.40;;;;;;6278010;28;20195;-65
2022/02/12 13:03:47;;;;;;;4.72;1.77;;;36.70;11.30;;;;;;6263222;28;20699;-65
2022/02/12 13:06:52;;;;;;;2.25;1.40;;;37.60;11.00;;;;;;6253729;28;20227;-65
2022/02/12 13:09:58;;;;;;;2.03;1.27;;;37.60;10.80;;;;;;6253573;28;20239;-65
2022/02/12 13:13:12;;;;;;;2.05;1.58;;;36.60;11.30;;;;;;6252697;28;20235;-65
2022/02/12 13:16:18;;;;;;;1.88;1.27;;;36.20;11.50;;;;;;6276482;28;20254;-66
2022/02/12 13:19:25;;;;;;;1.67;1.58;;;35.00;12.10;;;;;;6278207;28;20239;-66
2022/02/12 13:22:36;;;;;;;1.45;1.35;;;34.00;12.80;;;;;;6277589;28;20242;-66
2022/02/12 13:25:41;;;;;;;3.90;1.90;;;34.10;12.40;;;;;;6277725;28;20235;-66
2022/02/12 13:28:51;;;;;;;2.80;1.60;;;33.60;12.60;;;;;;6272515;28;20235;-66
2022/02/12 13:31:56;;;;;;;1.70;1.40;;;33.60;12.60;;;;;;6276480;28;20247;-65
2022/02/12 13:35:05;;;;;;;2.08;1.80;;;33.40;13.00;;;;;;6278123;28;20242;-65
2022/02/12 13:38:11;;;;;;;2.50;1.77;;;30.90;13.30;;;;;;6277379;28;20567;-65
2022/02/12 13:41:16;;;;;;;1.70;1.60;;;29.40;14.90;;;;;;6277512;28;20560;-65
2022/02/12 13:44:27;;;;;;;3.17;1.97;;;29.30;14.80;;;;;;6276352;28;20242;-64
2022/02/12 13:47:31;;;;;;;2.20;1.50;;;28.00;15.80;;;;;;6276999;28;20246;-65
2022/02/12 13:50:39;;;;;;;2.40;2.10;;;30.00;14.80;;;;;;6276492;28;20242;-65
2022/02/12 13:53:45;;;;;;;2.03;1.70;;;31.30;14.20;;;;;;6276610;28;20232;-65
2022/02/12 13:56:51;;;;;;;2.00;1.90;;;31.30;14.20;;;;;;6276832;28;20235;-65
2022/02/12 13:59:54;;;;;;;2.67;2.07;;;29.80;14.80;;;;;;6276321;28;20235;-65
2022/02/12 14:02:57;;;;;;;2.00;1.80;;;28.90;15.40;;;;;;6268605;28;20668;-64
2022/02/12 14:06:01;;;;;;;2.10;1.33;;;29.50;15.10;;;;;;6251136;28;20240;-64
2022/02/12 14:09:05;;;;;;;1.70;1.60;;;29.90;14.90;;;;;;6251359;28;20680;-65
2022/02/12 14:12:08;;;;;;;2.57;2.13;;;28.50;15.20;;;;;;6250842;28;20250;-65
2022/02/12 14:15:11;;;;;;;2.27;1.90;;;26.20;16.60;;;;;;6265836;28;20644;-64
2022/02/12 14:18:15;;;;;;;2.93;2.13;;;23.40;18.10;;;;;;6279748;28;20231;-64
2022/02/12 14:21:20;;;;;;;1.77;1.67;;;21.70;18.90;;;;;;6277122;28;20648;-64
2022/02/12 14:24:23;;;;;;;1.37;1.27;;;19.70;20.20;;;;;;6275648;28;20240;-65
2022/02/12 14:27:26;;;;;;;3.83;1.67;;;18.20;21.50;;;;;;6276415;28;20311;-64
2022/02/12 14:30:29;;;;;;;2.30;1.63;;;16.00;23.50;;;;;;6276570;28;21178;-64
2022/02/12 14:33:34;;;;;;;1.50;1.40;;;14.60;25.10;;;;;;6271787;28;20466;-64
2022/02/12 14:36:39;;;;;;;2.60;2.03;;;14.20;26.10;;;;;;6277128;28;20506;-65
2022/02/12 14:39:42;;;;;;;1.90;1.80;;;13.70;27.10;;;;;;6275886;28;20478;-64
2022/02/12 14:42:46;;;;;;;2.60;1.90;;;13.30;27.50;;;;;;6275366;28;20478;-64
2022/02/12 14:45:49;;;;;;;2.30;1.73;;;13.10;28.00;;;;;;6275809;28;20466;-64
2022/02/12 14:48:53;;;;;;;1.70;1.60;;;12.70;28.80;;;;;;6275396;28;20470;-64
2022/02/12 14:51:59;;;;;;;3.00;2.30;;;12.10;29.60;;;;;;6277121;28;20482;-63
2022/02/12 14:55:02;;;;;;;2.33;2.13;;;11.70;30.60;;;;;;6276725;28;20965;-63
2022/02/12 14:58:05;;;;;;;2.00;1.90;;;11.50;31.20;;;;;;6275693;28;20469;-63
2022/02/12 15:01:08;;;;;;;2.43;2.20;;;11.30;31.40;;;;;;6275142;28;20480;-63
2022/02/12 15:04:12;;;;;;;3.47;2.60;;;11.30;31.90;;;;;;6278885;28;20478;-63
2022/02/12 15:07:16;;;;;;;2.00;1.80;;;11.20;32.20;;;;;;6278194;28;20977;-63
2022/02/12 15:10:20;;;;;;;2.70;2.07;;;10.80;32.80;;;;;;6275146;28;20475;-63
2022/02/12 15:13:23;;;;;;;3.73;2.10;;;10.70;33.20;;;;;;6274377;28;20481;-63
2022/02/12 15:16:26;;;;;;;2.97;2.67;;;10.50;33.70;;;;;;6274451;28;20474;-63
2022/02/12 15:19:29;;;;;;;2.20;2.03;;;10.50;34.10;;;;;;6274888;28;20811;-63
2022/02/12 15:22:34;;;;;;;4.33;2.17;;;10.60;34.40;;;;;;6274889;28;20498;-63
2022/02/12 15:25:38;;;;;;;2.50;2.30;;;10.50;34.40;;;;;;6275150;28;20952;-64
2022/02/12 15:28:45;;;;;;;2.27;2.07;;;10.40;34.90;;;;;;6274955;28;20553;-64
2022/02/12 15:31:48;;;;;;;2.43;2.23;;;10.20;35.20;;;;;;6274636;28;20478;-63
2022/02/12 15:34:52;;;;;;;2.70;2.50;;;10.20;35.20;;;;;;6274712;28;20509;-64
2022/02/12 15:37:56;;;;;;;2.47;2.27;;;10.20;35.40;;;;;;6264857;28;20485;-62
2022/02/12 15:41:00;;;;;;;2.70;2.47;;;10.00;35.60;;;;;;6274075;28;20479;-64
2022/02/12 15:44:05;;;;;;;3.67;2.10;;;9.90;36.90;;;;;;6273913;28;20482;-64
2022/02/12 15:47:08;;;;;;;3.03;2.83;;;9.80;36.90;;;;;;6273982;28;20472;-64
2022/02/12 15:50:11;;;;;;;2.10;1.87;;;9.70;36.20;;;;;;6274279;28;20492;-63
2022/02/12 15:53:16;;;;;;;2.20;2.10;;;9.70;36.20;;;;;;6274421;28;20477;-64
2022/02/12 15:56:22;;;;;;;5.20;2.10;;;9.60;36.30;;;;;;6274063;28;20476;-64
2022/02/12 15:59:25;;;;;;;2.43;2.17;;;9.40;36.50;;;;;;6273973;28;20480;-64
2022/02/12 16:02:28;;;;;;;4.90;2.57;;;9.30;36.80;;;;;;6270615;28;20474;-63
2022/02/12 16:05:33;;;;;;;3.27;2.30;;;9.20;36.90;;;;;;6249266;28;20837;-63
2022/02/12 16:08:40;;;;;;;3.67;2.40;;;9.20;37.10;;;;;;6249430;28;20477;-63
2022/02/12 16:11:43;;;;;;;4.20;2.30;;;9.00;38.30;;;;;;6249000;28;20481;-64
2022/02/12 16:14:46;;;;;;;2.70;2.30;;;8.80;38.10;;;;;;6265762;28;20472;-63
2022/02/12 16:17:49;;;;;;;2.63;2.40;;;8.70;38.30;;;;;;6278421;28;20472;-64
2022/02/12 16:20:52;;;;;;;6.17;2.70;;;8.70;39.40;;;;;;6278180;28;20475;-64
2022/02/12 16:23:57;;;;;;;2.37;2.17;;;8.50;39.10;;;;;;6278550;28;20853;-65
2022/02/12 16:27:02;;;;;;;3.60;2.70;;;8.50;39.20;;;;;;6278632;28;20472;-62